Time;durP1;ratioP1;P1;durP2;ratioP2;P2;SDS_P1;SDS_P2;PMS_P1;PMS_P2;Temp;Humidity;BMP_temperature;BMP_pressure;BME280_temperature;BME280_humidity;BME280_pressure;Samples;Min_cycle;Max_cycle;Signal;HPM_P1;HPM_P2
2022/08/31 00:08:00;;;;;;;26.60;23.52;;;;;;;;;;10121069;28;20131;-59
2022/08/31 00:12:55;;;;;;;29.63;26.15;;;;;;;;;;10126969;28;20541;-59
2022/08/31 00:17:50;;;;;;;27.30;24.35;;;;;;;;;;10122960;28;20055;-60
2022/08/31 00:22:43;;;;;;;27.65;23.85;;;;;;;;;;10114861;28;20053;-60
2022/08/31 00:27:37;;;;;;;23.75;21.23;;;;;;;;;;10125544;28;20508;-59
2022/08/31 00:32:31;;;;;;;20.80;18.73;;;;;;;;;;10124406;28;20049;-60
2022/08/31 00:37:25;;;;;;;21.30;18.55;;;;;;;;;;10119016;28;20797;-60
2022/08/31 00:42:19;;;;;;;19.67;17.77;;;;;;;;;;10129729;28;20095;-61
2022/08/31 00:47:12;;;;;;;20.67;16.38;;;;;;;;;;10123855;28;20056;-61
2022/08/31 00:52:12;;;;;;;18.30;16.40;;;;;;;;;;10124968;28;20052;-60
2022/08/31 00:57:06;;;;;;;16.80;15.18;;;;;;;;;;10125878;28;20575;-59
2022/08/31 01:02:00;;;;;;;18.92;17.02;;;;;;;;;;10132279;28;20075;-59
2022/08/31 01:06:55;;;;;;;19.10;17.20;;;;;;;;;;10128216;28;20124;-58
2022/08/31 01:11:50;;;;;;;17.77;15.98;;;;;;;;;;10122748;28;20053;-61
2022/08/31 01:16:51;;;;;;;20.38;17.45;;;;;;;;;;10123528;28;20049;-62
2022/08/31 01:21:54;;;;;;;22.75;20.38;;;;;;;;;;10145326;28;20044;-60
2022/08/31 01:26:48;;;;;;;20.08;18.02;;;;;;;;;;10130443;28;20061;-60
2022/08/31 01:31:48;;;;;;;18.30;16.52;;;;;;;;;;10123796;28;20046;-60
2022/08/31 01:36:41;;;;;;;16.83;15.23;;;;;;;;;;10129429;28;20041;-60
2022/08/31 01:41:40;;;;;;;16.52;15.07;;;;;;;;;;10131365;28;20102;-60
2022/08/31 01:46:33;;;;;;;17.23;15.35;;;;;;;;;;10128467;28;20682;-60
2022/08/31 01:51:26;;;;;;;16.40;14.45;;;;;;;;;;10131133;28;20543;-62
2022/08/31 01:56:24;;;;;;;16.60;15.00;;;;;;;;;;10136348;28;20095;-60
2022/08/31 02:01:23;;;;;;;16.77;15.10;;;;;;;;;;10124746;28;20492;-60
2022/08/31 02:06:25;;;;;;;17.35;15.55;;;;;;;;;;10129521;28;20496;-59
2022/08/31 02:11:18;;;;;;;16.02;14.18;;;;;;;;;;10133315;28;20090;-59
2022/08/31 02:16:12;;;;;;;16.20;14.70;;;;;;;;;;10126054;28;20049;-59
2022/08/31 02:21:06;;;;;;;15.07;13.57;;;;;;;;;;10120618;28;20144;-59
2022/08/31 02:26:00;;;;;;;15.77;13.70;;;;;;;;;;10119641;28;20057;-59
2022/08/31 02:30:53;;;;;;;15.68;14.27;;;;;;;;;;10123457;28;20060;-59
2022/08/31 02:35:48;;;;;;;14.50;13.13;;;;;;;;;;10121791;28;20049;-59
2022/08/31 02:40:46;;;;;;;14.32;12.82;;;;;;;;;;10130180;28;20454;-60
2022/08/31 02:45:41;;;;;;;14.18;12.32;;;;;;;;;;10136864;28;20056;-60
2022/08/31 02:50:50;;;;;;;13.90;12.25;;;;;;;;;;10129424;28;20101;-59
2022/08/31 02:55:46;;;;;;;14.00;12.60;;;;;;;;;;10137525;28;20064;-60
2022/08/31 03:00:44;;;;;;;13.43;12.07;;;;;;;;;;10136608;28;20086;-59
2022/08/31 03:05:38;;;;;;;13.80;12.40;;;;;;;;;;10149188;28;20056;-59
2022/08/31 03:10:32;;;;;;;14.90;12.75;;;;;;;;;;10134933;28;20044;-60
2022/08/31 03:15:26;;;;;;;19.88;16.08;;;;;;;;;;10131427;28;20060;-59
2022/08/31 03:20:20;;;;;;;17.98;16.05;;;;;;;;;;10124827;28;20061;-59
2022/08/31 03:25:16;;;;;;;16.58;14.35;;;;;;;;;;10135585;28;20066;-60
2022/08/31 03:30:12;;;;;;;14.82;13.32;;;;;;;;;;10134287;28;20102;-60
2022/08/31 03:35:13;;;;;;;14.73;13.15;;;;;;;;;;10140750;28;20139;-60
2022/08/31 03:40:10;;;;;;;18.60;14.60;;;;;;;;;;10144223;28;20048;-60
2022/08/31 03:45:07;;;;;;;16.25;14.57;;;;;;;;;;10134748;28;20491;-61
2022/08/31 03:50:03;;;;;;;15.68;14.07;;;;;;;;;;10134322;28;20044;-60
2022/08/31 03:55:11;;;;;;;16.58;15.05;;;;;;;;;;10130582;28;20083;-59
2022/08/31 04:00:06;;;;;;;26.55;20.83;;;;;;;;;;10135651;28;20561;-59
2022/08/31 04:05:07;;;;;;;28.55;22.17;;;;;;;;;;10139806;28;20052;-59
2022/08/31 04:10:21;;;;;;;32.47;23.73;;;;;;;;;;10113153;28;20144;-59
2022/08/31 04:15:36;;;;;;;35.60;25.40;;;;;;;;;;10079561;28;20052;-59
2022/08/31 04:20:50;;;;;;;28.27;23.63;;;;;;;;;;10103161;28;20520;-59
2022/08/31 04:25:44;;;;;;;25.20;22.52;;;;;;;;;;10120260;28;20507;-60
2022/08/31 04:30:40;;;;;;;31.27;24.67;;;;;;;;;;10140918;28;20052;-61
2022/08/31 04:35:40;;;;;;;33.15;24.85;;;;;;;;;;10130994;28;20054;-61
2022/08/31 04:40:38;;;;;;;23.05;20.67;;;;;;;;;;10135895;28;20045;-62
2022/08/31 04:45:32;;;;;;;22.13;19.83;;;;;;;;;;10127960;28;20466;-62
2022/08/31 04:50:26;;;;;;;23.80;21.23;;;;;;;;;;10118767;28;20049;-62
2022/08/31 04:55:33;;;;;;;23.77;21.23;;;;;;;;;;10113481;28;20136;-61
2022/08/31 05:00:29;;;;;;;22.20;20.00;;;;;;;;;;10128179;28;20049;-60
2022/08/31 05:05:45;;;;;;;24.17;19.45;;;;;;;;;;10115036;28;20099;-61
2022/08/31 05:10:40;;;;;;;23.25;19.10;;;;;;;;;;10128930;28;20079;-61
2022/08/31 05:15:38;;;;;;;24.08;21.52;;;;;;;;;;10129709;28;20048;-61
2022/08/31 05:20:32;;;;;;;32.67;27.25;;;;;;;;;;10126756;28;20045;-62
2022/08/31 05:25:26;;;;;;;39.47;26.55;;;;;;;;;;10134654;28;20048;-61
2022/08/31 05:30:20;;;;;;;28.27;24.75;;;;;;;;;;10127315;28;20122;-61
2022/08/31 05:35:35;;;;;;;32.63;26.52;;;;;;;;;;10149677;28;20056;-61
2022/08/31 05:40:29;;;;;;;34.17;27.27;;;;;;;;;;10144521;28;20074;-61
2022/08/31 05:45:22;;;;;;;45.00;28.65;;;;;;;;;;10137912;28;20056;-61
2022/08/31 05:50:17;;;;;;;37.95;26.83;;;;;;;;;;10124145;28;20053;-60
2022/08/31 05:55:11;;;;;;;35.60;28.25;;;;;;;;;;10133754;28;20483;-61
2022/08/31 06:00:09;;;;;;;38.50;28.33;;;;;;;;;;10125764;28;20064;-60
2022/08/31 06:05:09;;;;;;;36.60;28.92;;;;;;;;;;10133504;28;20527;-64
2022/08/31 06:10:04;;;;;;;33.78;25.65;;;;;;;;;;10132714;28;20049;-62
2022/08/31 06:14:57;;;;;;;39.42;26.92;;;;;;;;;;10118158;28;20063;-60
2022/08/31 06:19:51;;;;;;;26.77;22.58;;;;;;;;;;10147004;28;20407;-61
2022/08/31 06:24:45;;;;;;;26.25;19.80;;;;;;;;;;10144662;28;20407;-61
2022/08/31 06:29:40;;;;;;;26.48;18.25;;;;;;;;;;10133625;28;20090;-60
2022/08/31 06:34:35;;;;;;;22.50;18.85;;;;;;;;;;10130090;28;20056;-62
2022/08/31 06:39:28;;;;;;;26.75;20.73;;;;;;;;;;10125386;28;20055;-61
2022/08/31 06:44:40;;;;;;;33.83;23.38;;;;;;;;;;10135448;28;20055;-62
2022/08/31 06:49:39;;;;;;;31.25;27.08;;;;;;;;;;10131035;28;20052;-63
2022/08/31 06:54:32;;;;;;;43.83;29.40;;;;;;;;;;10127353;28;20106;-63
2022/08/31 06:59:44;;;;;;;36.97;29.05;;;;;;;;;;10137221;28;20117;-63
2022/08/31 07:04:52;;;;;;;41.03;32.40;;;;;;;;;;10139150;28;20102;-70
2022/08/31 07:09:46;;;;;;;33.92;28.65;;;;;;;;;;10137397;28;20491;-67
2022/08/31 07:14:45;;;;;;;30.00;24.58;;;;;;;;;;10136627;28;20063;-67
2022/08/31 07:19:49;;;;;;;25.40;22.85;;;;;;;;;;10127029;28;20048;-63
2022/08/31 07:24:44;;;;;;;27.42;23.08;;;;;;;;;;10145018;28;20044;-61
2022/08/31 07:29:39;;;;;;;23.70;19.52;;;;;;;;;;10136958;28;20053;-62
2022/08/31 07:34:36;;;;;;;23.40;20.77;;;;;;;;;;10133864;28;20049;-61
2022/08/31 07:45:11;;;;;;;23.42;21.10;;;;;;;;;;10137453;28;20044;-61
2022/08/31 07:50:07;;;;;;;24.83;22.25;;;;;;;;;;10142349;28;20053;-61
2022/08/31 07:55:13;;;;;;;23.70;20.65;;;;;;;;;;10143707;28;20049;-61
2022/08/31 08:00:21;;;;;;;24.92;20.27;;;;;;;;;;10140304;28;20045;-61
2022/08/31 08:05:21;;;;;;;22.63;20.02;;;;;;;;;;10140133;28;20443;-62
2022/08/31 08:10:43;;;;;;;23.33;19.23;;;;;;;;;;10135778;28;20101;-64
2022/08/31 08:16:12;;;;;;;19.40;17.40;;;;;;;;;;10097204;28;20113;-64
2022/08/31 08:21:45;;;;;;;20.75;17.02;;;;;;;;;;10065210;28;20052;-64
2022/08/31 08:26:47;;;;;;;20.00;14.43;;;;;;;;;;10107846;28;20140;-64
2022/08/31 08:32:04;;;;;;;17.83;16.02;;;;;;;;;;10145260;28;20055;-64
2022/08/31 08:36:59;;;;;;;16.42;14.82;;;;;;;;;;10138210;28;20048;-64
2022/08/31 08:41:55;;;;;;;15.32;13.73;;;;;;;;;;10139578;28;20052;-64
2022/08/31 08:46:53;;;;;;;14.85;13.35;;;;;;;;;;10124377;28;20048;-64
2022/08/31 08:52:29;;;;;;;21.85;14.60;;;;;;;;;;10118733;28;20086;-64
2022/08/31 08:57:24;;;;;;;23.40;14.55;;;;;;;;;;10136145;28;20048;-63
2022/08/31 09:02:41;;;;;;;15.82;13.07;;;;;;;;;;10145124;28;20052;-64
2022/08/31 09:07:38;;;;;;;16.60;14.52;;;;;;;;;;10147092;28;20075;-63
2022/08/31 09:12:37;;;;;;;14.25;12.85;;;;;;;;;;10152644;28;20059;-64
2022/08/31 09:17:42;;;;;;;16.35;14.80;;;;;;;;;;10146768;28;20056;-64
2022/08/31 09:22:49;;;;;;;20.98;17.65;;;;;;;;;;10150741;28;20411;-64
2022/08/31 09:27:58;;;;;;;19.15;15.63;;;;;;;;;;10147904;28;20102;-63
2022/08/31 09:32:55;;;;;;;15.85;14.35;;;;;;;;;;10138397;28;20131;-64
2022/08/31 09:38:02;;;;;;;17.33;15.35;;;;;;;;;;10149661;28;20071;-64
2022/08/31 09:43:09;;;;;;;18.10;16.25;;;;;;;;;;10148755;28;20115;-64
2022/08/31 09:48:07;;;;;;;19.10;17.35;;;;;;;;;;10134733;28;20154;-64
2022/08/31 09:58:41;;;;;;;18.10;16.30;;;;;;;;;;10140923;28;20055;-64
2022/08/31 10:03:36;;;;;;;17.92;16.30;;;;;;;;;;10130534;28;20056;-64
2022/08/31 10:08:52;;;;;;;19.23;16.85;;;;;;;;;;10132959;28;20048;-64
2022/08/31 10:13:56;;;;;;;17.98;16.23;;;;;;;;;;10150856;28;20048;-64
2022/08/31 10:18:57;;;;;;;19.00;16.98;;;;;;;;;;10144261;28;20061;-64
2022/08/31 10:24:07;;;;;;;17.98;16.30;;;;;;;;;;10136740;28;20123;-64
2022/08/31 10:29:05;;;;;;;17.52;15.98;;;;;;;;;;10140421;28;20053;-64
2022/08/31 10:39:51;;;;;;;18.77;17.05;;;;;;;;;;10140424;28;20048;-64
2022/08/31 10:44:55;;;;;;;18.65;16.95;;;;;;;;;;10128170;28;20075;-64
2022/08/31 10:50:10;;;;;;;16.73;15.05;;;;;;;;;;10140463;28;20048;-64
2022/08/31 10:55:24;;;;;;;14.60;12.07;;;;;;;;;;10146850;28;20090;-64
2022/08/31 11:00:44;;;;;;;11.98;10.02;;;;;;;;;;10141837;28;20079;-64
2022/08/31 11:05:41;;;;;;;12.10;9.50;;;;;;;;;;10144953;28;20395;-64
2022/08/31 11:10:47;;;;;;;12.05;10.77;;;;;;;;;;10142823;28;20510;-64
2022/08/31 11:15:47;;;;;;;12.60;11.38;;;;;;;;;;10144595;28;20052;-64
2022/08/31 11:21:19;;;;;;;14.98;13.27;;;;;;;;;;10141288;28;20087;-64
2022/08/31 11:26:38;;;;;;;13.52;12.35;;;;;;;;;;10147580;28;20052;-64
2022/08/31 11:31:32;;;;;;;13.88;11.52;;;;;;;;;;10136665;28;20408;-64
2022/08/31 11:36:55;;;;;;;12.65;11.20;;;;;;;;;;10142388;28;20102;-64
2022/08/31 11:41:49;;;;;;;12.20;11.07;;;;;;;;;;10139498;28;20411;-63
2022/08/31 11:47:05;;;;;;;10.93;9.98;;;;;;;;;;10134411;28;20045;-63
2022/08/31 11:52:09;;;;;;;11.35;10.05;;;;;;;;;;10134309;28;20530;-65
2022/08/31 11:57:05;;;;;;;12.85;11.45;;;;;;;;;;10136966;28;20052;-64
2022/08/31 12:02:20;;;;;;;11.13;10.20;;;;;;;;;;10132707;28;20049;-64
2022/08/31 12:07:17;;;;;;;12.70;11.40;;;;;;;;;;10133949;28;20095;-64
2022/08/31 12:12:28;;;;;;;11.73;8.90;;;;;;;;;;10121356;28;20044;-65
2022/08/31 12:17:29;;;;;;;13.60;9.38;;;;;;;;;;10138959;28;20102;-64
2022/08/31 12:29:09;;;;;;;10.93;9.93;;;;;;;;;;10133501;28;20056;-64
2022/08/31 12:34:10;;;;;;;11.85;9.55;;;;;;;;;;10131317;28;20056;-66
2022/08/31 12:39:47;;;;;;;12.93;9.85;;;;;;;;;;10132624;28;20045;-63
2022/08/31 12:44:46;;;;;;;11.35;9.02;;;;;;;;;;10122919;28;20457;-64
2022/08/31 12:49:46;;;;;;;7.88;7.10;;;;;;;;;;10134594;28;20052;-64
2022/08/31 12:55:04;;;;;;;9.23;8.02;;;;;;;;;;10131570;28;20055;-64
2022/08/31 13:00:09;;;;;;;14.40;7.90;;;;;;;;;;10143716;28;20067;-64
2022/08/31 13:05:32;;;;;;;10.00;9.00;;;;;;;;;;10138073;28;20052;-64
2022/08/31 13:10:34;;;;;;;10.18;9.15;;;;;;;;;;10144579;28;20064;-64
2022/08/31 13:15:36;;;;;;;9.98;6.90;;;;;;;;;;10142596;28;20515;-64
2022/08/31 13:20:41;;;;;;;7.25;6.18;;;;;;;;;;10126389;28;20041;-64
2022/08/31 13:25:36;;;;;;;14.07;6.53;;;;;;;;;;10145425;28;20426;-64
2022/08/31 13:30:34;;;;;;;8.13;6.60;;;;;;;;;;10129137;28;20052;-64
2022/08/31 13:35:31;;;;;;;7.00;6.30;;;;;;;;;;10145788;28;20052;-64
2022/08/31 13:40:25;;;;;;;9.32;7.10;;;;;;;;;;10140923;28;20060;-64
2022/08/31 13:45:26;;;;;;;7.80;7.10;;;;;;;;;;10137549;28;20049;-64
2022/08/31 13:50:21;;;;;;;13.35;7.20;;;;;;;;;;10127886;28;20128;-64
2022/08/31 13:55:36;;;;;;;5.90;5.40;;;;;;;;;;10137382;28;20061;-64
2022/08/31 14:00:45;;;;;;;8.63;6.55;;;;;;;;;;10130641;28;20529;-63
2022/08/31 14:05:39;;;;;;;10.38;5.57;;;;;;;;;;10143348;28;20052;-64
2022/08/31 14:10:38;;;;;;;6.30;5.78;;;;;;;;;;10143102;28;20127;-64
2022/08/31 14:16:01;;;;;;;6.38;5.32;;;;;;;;;;10129330;28;20048;-64
2022/08/31 14:21:10;;;;;;;8.82;5.30;;;;;;;;;;10134220;28;20076;-64
2022/08/31 14:26:24;;;;;;;7.82;6.40;;;;;;;;;;10127384;28;20560;-64
2022/08/31 14:31:33;;;;;;;7.30;5.82;;;;;;;;;;10139443;28;20056;-64
2022/08/31 14:36:26;;;;;;;6.00;5.40;;;;;;;;;;10138647;28;20052;-64
2022/08/31 14:41:30;;;;;;;5.35;4.68;;;;;;;;;;10139337;28;20155;-64
2022/08/31 14:46:27;;;;;;;6.13;5.53;;;;;;;;;;10137421;28;20048;-64
2022/08/31 14:51:21;;;;;;;5.20;4.70;;;;;;;;;;10134827;28;20525;-64
2022/08/31 14:56:19;;;;;;;7.88;6.40;;;;;;;;;;10141768;28;20942;-63
2022/08/31 15:01:15;;;;;;;5.95;5.05;;;;;;;;;;10138422;28;20045;-63
2022/08/31 15:06:29;;;;;;;4.45;4.05;;;;;;;;;;10134380;28;20400;-63
2022/08/31 15:11:24;;;;;;;10.98;5.32;;;;;;;;;;10140207;28;20056;-64
2022/08/31 15:16:20;;;;;;;7.55;6.07;;;;;;;;;;10141395;28;20079;-64
2022/08/31 15:21:17;;;;;;;6.13;5.43;;;;;;;;;;10133794;28;20110;-63
2022/08/31 15:26:13;;;;;;;6.72;5.18;;;;;;;;;;10138886;28;20056;-64
2022/08/31 15:31:22;;;;;;;9.23;5.10;;;;;;;;;;10135915;28;20075;-65
2022/08/31 15:36:17;;;;;;;7.15;5.63;;;;;;;;;;10136576;28;20048;-64
2022/08/31 15:41:11;;;;;;;9.05;5.00;;;;;;;;;;10127096;28;20067;-65
2022/08/31 15:46:07;;;;;;;8.48;5.75;;;;;;;;;;10129362;28;20053;-66
2022/08/31 15:51:16;;;;;;;5.00;4.47;;;;;;;;;;10119991;28;20481;-63
2022/08/31 15:56:11;;;;;;;5.25;4.68;;;;;;;;;;10128761;28;20060;-64
2022/08/31 16:01:14;;;;;;;5.35;4.88;;;;;;;;;;10133625;28;20072;-64
2022/08/31 16:06:10;;;;;;;6.75;4.75;;;;;;;;;;10132209;28;20093;-63
2022/08/31 16:11:10;;;;;;;4.32;3.92;;;;;;;;;;10141699;28;20461;-65
2022/08/31 16:16:05;;;;;;;7.90;5.25;;;;;;;;;;10139501;28;20475;-64
2022/08/31 16:21:06;;;;;;;4.88;4.43;;;;;;;;;;10141758;28;20168;-63
2022/08/31 16:26:04;;;;;;;5.47;4.68;;;;;;;;;;10132551;28;20129;-63
2022/08/31 16:30:59;;;;;;;4.65;4.25;;;;;;;;;;10137846;28;20048;-62
2022/08/31 16:35:53;;;;;;;4.18;3.78;;;;;;;;;;10137594;28;20049;-63
2022/08/31 16:40:48;;;;;;;7.85;4.10;;;;;;;;;;10134611;28;20079;-65
2022/08/31 16:45:42;;;;;;;5.05;3.50;;;;;;;;;;10119247;28;20041;-63
2022/08/31 16:50:43;;;;;;;5.50;3.80;;;;;;;;;;10130769;28;20045;-63
2022/08/31 16:55:40;;;;;;;4.20;3.80;;;;;;;;;;10135926;28;20040;-65
2022/08/31 17:00:36;;;;;;;5.43;4.90;;;;;;;;;;10132328;28;20431;-63
2022/08/31 17:05:31;;;;;;;4.57;4.18;;;;;;;;;;10131649;28;20048;-63
2022/08/31 17:10:27;;;;;;;6.13;4.30;;;;;;;;;;10131990;28;20052;-66
2022/08/31 17:15:25;;;;;;;7.70;5.15;;;;;;;;;;10128717;28;20500;-63
2022/08/31 17:20:19;;;;;;;4.90;4.50;;;;;;;;;;10129203;28;20044;-63
2022/08/31 17:25:13;;;;;;;5.25;4.75;;;;;;;;;;10129079;28;20139;-64
2022/08/31 17:30:10;;;;;;;4.75;4.05;;;;;;;;;;10137929;28;20048;-62
2022/08/31 17:35:04;;;;;;;11.85;6.80;;;;;;;;;;10142483;28;20124;-61
2022/08/31 17:40:00;;;;;;;8.40;4.68;;;;;;;;;;10145552;28;20105;-61
2022/08/31 17:44:55;;;;;;;4.13;3.60;;;;;;;;;;10145503;28;20083;-60
2022/08/31 17:49:51;;;;;;;4.38;3.60;;;;;;;;;;10120688;28;20499;-62
2022/08/31 17:54:45;;;;;;;7.43;3.53;;;;;;;;;;10128315;28;20245;-61
2022/08/31 17:59:41;;;;;;;5.50;3.75;;;;;;;;;;10121853;28;20411;-61
2022/08/31 18:04:36;;;;;;;7.18;3.90;;;;;;;;;;10127922;28;20239;-60
2022/08/31 18:09:34;;;;;;;7.85;4.40;;;;;;;;;;10132131;28;20044;-63
2022/08/31 18:14:30;;;;;;;5.60;4.07;;;;;;;;;;10124157;28;20052;-60
2022/08/31 18:19:27;;;;;;;7.95;4.93;;;;;;;;;;10118366;28;20099;-64
2022/08/31 18:24:21;;;;;;;5.07;4.57;;;;;;;;;;10125716;28;20128;-66
2022/08/31 18:29:18;;;;;;;11.00;6.47;;;;;;;;;;10128524;28;20068;-61
2022/08/31 18:34:20;;;;;;;4.75;3.92;;;;;;;;;;10126486;28;20053;-65
2022/08/31 18:39:20;;;;;;;4.60;4.15;;;;;;;;;;10124317;28;20512;-66
2022/08/31 18:49:48;;;;;;;4.25;3.80;;;;;;;;;;10138062;28;20102;-65
2022/08/31 18:54:44;;;;;;;4.05;3.72;;;;;;;;;;10129040;28;20045;-67
2022/08/31 18:59:38;;;;;;;4.70;4.28;;;;;;;;;;10122555;28;20132;-64
2022/08/31 19:04:34;;;;;;;6.72;4.70;;;;;;;;;;10122636;28;20049;-62
2022/08/31 19:09:28;;;;;;;5.40;4.90;;;;;;;;;;10127361;28;20049;-64
2022/08/31 19:14:25;;;;;;;10.75;5.88;;;;;;;;;;10126485;28;20048;-61
2022/08/31 19:19:20;;;;;;;9.95;7.40;;;;;;;;;;10116038;28;20049;-59
2022/08/31 19:24:16;;;;;;;9.23;7.63;;;;;;;;;;10118884;28;20143;-59
2022/08/31 19:29:13;;;;;;;7.63;6.93;;;;;;;;;;10125545;28;20049;-58
2022/08/31 19:34:08;;;;;;;7.85;7.15;;;;;;;;;;10115193;28;20106;-59
2022/08/31 19:39:04;;;;;;;10.23;7.00;;;;;;;;;;10122604;28;20044;-60
2022/08/31 19:44:00;;;;;;;9.00;8.10;;;;;;;;;;10126527;28;20128;-58
2022/08/31 19:49:01;;;;;;;10.10;7.47;;;;;;;;;;10115010;28;20056;-58
2022/08/31 19:53:59;;;;;;;9.73;8.85;;;;;;;;;;10122163;28;20052;-58
2022/08/31 19:58:55;;;;;;;10.80;8.37;;;;;;;;;;10130353;28;20526;-60
2022/08/31 20:03:49;;;;;;;11.68;7.97;;;;;;;;;;10118632;28;20037;-61
2022/08/31 20:08:43;;;;;;;5.90;5.40;;;;;;;;;;10124882;28;20067;-62
2022/08/31 20:13:39;;;;;;;9.88;6.07;;;;;;;;;;10123983;28;20048;-60
2022/08/31 20:18:39;;;;;;;6.40;5.78;;;;;;;;;;10122426;28;20049;-61
2022/08/31 20:23:51;;;;;;;8.40;6.07;;;;;;;;;;10117591;28;20056;-61
2022/08/31 20:28:46;;;;;;;13.57;11.45;;;;;;;;;;10123146;28;20070;-62
2022/08/31 20:33:43;;;;;;;20.35;14.02;;;;;;;;;;10130884;28;20064;-61
2022/08/31 20:38:40;;;;;;;16.63;13.90;;;;;;;;;;10132384;28;20094;-61
2022/08/31 20:43:35;;;;;;;12.30;11.10;;;;;;;;;;10134572;28;20062;-62
2022/08/31 20:53:44;;;;;;;20.25;13.48;;;;;;;;;;10130362;28;20048;-62
2022/08/31 20:58:42;;;;;;;14.20;12.75;;;;;;;;;;10123947;28;20049;-62
2022/08/31 21:03:37;;;;;;;12.85;11.02;;;;;;;;;;10121634;28;20216;-63
2022/08/31 21:08:31;;;;;;;10.32;9.40;;;;;;;;;;10125738;28;20447;-62
2022/08/31 21:13:26;;;;;;;9.55;8.35;;;;;;;;;;10133517;28;20052;-61
2022/08/31 21:18:22;;;;;;;10.30;8.77;;;;;;;;;;10137611;28;20458;-61
2022/08/31 21:23:20;;;;;;;;;;;;;;;;;;10136134;28;20075;-61
2022/08/31 21:28:18;;;;;;;10.10;9.18;;;;;;;;;;10133734;28;19931;-61
2022/08/31 21:33:17;;;;;;;10.13;8.37;;;;;;;;;;10129299;28;20041;-61
2022/08/31 21:38:18;;;;;;;9.00;8.00;;;;;;;;;;10126267;28;20103;-62
2022/08/31 21:43:12;;;;;;;9.27;8.38;;;;;;;;;;10134193;28;20068;-61
2022/08/31 21:48:08;;;;;;;21.50;13.60;;;;;;;;;;10138103;28;20106;-62
2022/08/31 21:53:05;;;;;;;22.63;20.35;;;;;;;;;;10146696;28;20047;-63
2022/08/31 21:58:02;;;;;;;25.02;22.80;;;;;;;;;;10133577;28;20051;-62
2022/08/31 22:03:00;;;;;;;21.88;19.95;;;;;;;;;;10135060;28;20498;-61
2022/08/31 22:07:55;;;;;;;25.77;23.13;;;;;;;;;;10144379;28;20514;-61
2022/08/31 22:12:49;;;;;;;28.13;21.83;;;;;;;;;;10142152;28;20070;-60
2022/08/31 22:17:44;;;;;;;24.10;21.23;;;;;;;;;;10133872;28;20040;-60
2022/08/31 22:22:58;;;;;;;24.13;21.83;;;;;;;;;;10125286;28;20052;-61
2022/08/31 22:27:51;;;;;;;20.77;18.98;;;;;;;;;;10127206;28;20061;-61
2022/08/31 22:32:46;;;;;;;17.85;16.25;;;;;;;;;;10130480;28;20455;-60
2022/08/31 22:37:40;;;;;;;18.77;16.80;;;;;;;;;;10128149;28;20131;-61
2022/08/31 22:42:35;;;;;;;16.92;15.30;;;;;;;;;;10127943;28;20431;-61
2022/08/31 22:47:29;;;;;;;17.67;16.08;;;;;;;;;;10133915;28;20094;-60
2022/08/31 22:52:23;;;;;;;18.05;16.35;;;;;;;;;;10126792;28;20082;-61
2022/08/31 22:57:17;;;;;;;15.02;13.70;;;;;;;;;;10135387;28;20037;-61
2022/08/31 23:02:11;;;;;;;15.68;14.30;;;;;;;;;;10123370;28;20049;-62
2022/08/31 23:07:06;;;;;;;18.85;16.20;;;;;;;;;;10131703;28;20053;-61
2022/08/31 23:12:01;;;;;;;16.48;15.13;;;;;;;;;;10130105;28;20049;-62
2022/08/31 23:16:59;;;;;;;17.58;15.85;;;;;;;;;;10135333;28;20087;-62
2022/08/31 23:21:55;;;;;;;16.60;15.00;;;;;;;;;;10130981;28;20055;-62
2022/08/31 23:26:51;;;;;;;15.45;13.93;;;;;;;;;;10137642;28;20050;-61
2022/08/31 23:31:48;;;;;;;13.88;12.68;;;;;;;;;;10140468;28;20094;-61
2022/08/31 23:36:47;;;;;;;14.85;13.32;;;;;;;;;;10144083;28;20056;-61
2022/08/31 23:41:43;;;;;;;14.35;13.05;;;;;;;;;;10138310;28;20132;-61
2022/08/31 23:46:37;;;;;;;16.35;14.23;;;;;;;;;;10141653;28;20615;-61
2022/08/31 23:51:32;;;;;;;16.35;14.85;;;;;;;;;;10137101;28;20054;-61
2022/08/31 23:56:31;;;;;;;17.42;14.73;;;;;;;;;;10140527;28;20055;-62
